sensor_id;sensor_type;location;lat;lon;timestamp;P1;durP1;ratioP1;P2;durP2;ratioP2
18580;SDS011;9420;50.876;7.012;2023-04-29T00:01:21;16.80;;;9.93;;
18580;SDS011;9420;50.876;7.012;2023-04-29T00:03:49;12.40;;;9.37;;
18580;SDS011;9420;50.876;7.012;2023-04-29T00:06:16;16.57;;;10.20;;
18580;SDS011;9420;50.876;7.012;2023-04-29T00:08:43;15.60;;;10.77;;
18580;SDS011;9420;50.876;7.012;2023-04-29T00:11:10;12.53;;;9.30;;
18580;SDS011;9420;50.876;7.012;2023-04-29T00:13:38;16.53;;;11.43;;
18580;SDS011;9420;50.876;7.012;2023-04-29T00:16:06;19.23;;;11.60;;
18580;SDS011;9420;50.876;7.012;2023-04-29T00:18:34;17.23;;;12.33;;
18580;SDS011;9420;50.876;7.012;2023-04-29T00:21:03;18.20;;;11.03;;
18580;SDS011;9420;50.876;7.012;2023-04-29T00:23:31;16.63;;;11.00;;
18580;SDS011;9420;50.876;7.012;2023-04-29T00:25:58;16.57;;;10.93;;
18580;SDS011;9420;50.876;7.012;2023-04-29T00:28:25;18.73;;;11.03;;
18580;SDS011;9420;50.876;7.012;2023-04-29T00:30:52;14.00;;;10.17;;
18580;SDS011;9420;50.876;7.012;2023-04-29T00:33:20;17.70;;;11.43;;
18580;SDS011;9420;50.876;7.012;2023-04-29T00:35:47;13.90;;;9.43;;
18580;SDS011;9420;50.876;7.012;2023-04-29T00:38:15;17.57;;;9.97;;
18580;SDS011;9420;50.876;7.012;2023-04-29T00:40:43;17.67;;;10.53;;
18580;SDS011;9420;50.876;7.012;2023-04-29T00:43:10;17.47;;;11.37;;
18580;SDS011;9420;50.876;7.012;2023-04-29T00:45:37;18.13;;;10.67;;
18580;SDS011;9420;50.876;7.012;2023-04-29T00:48:05;18.37;;;10.70;;
18580;SDS011;9420;50.876;7.012;2023-04-29T00:50:33;21.53;;;11.87;;
18580;SDS011;9420;50.876;7.012;2023-04-29T00:53:00;22.10;;;11.87;;
18580;SDS011;9420;50.876;7.012;2023-04-29T00:55:29;23.17;;;12.53;;
18580;SDS011;9420;50.876;7.012;2023-04-29T00:57:58;18.57;;;11.60;;
18580;SDS011;9420;50.876;7.012;2023-04-29T01:00:26;18.37;;;12.70;;
18580;SDS011;9420;50.876;7.012;2023-04-29T01:02:55;18.70;;;11.47;;
18580;SDS011;9420;50.876;7.012;2023-04-29T01:05:24;19.73;;;13.20;;
18580;SDS011;9420;50.876;7.012;2023-04-29T01:08:01;21.83;;;11.60;;
18580;SDS011;9420;50.876;7.012;2023-04-29T01:10:44;21.60;;;12.57;;
18580;SDS011;9420;50.876;7.012;2023-04-29T01:13:21;18.83;;;12.60;;
18580;SDS011;9420;50.876;7.012;2023-04-29T01:15:59;17.80;;;11.40;;
18580;SDS011;9420;50.876;7.012;2023-04-29T01:18:30;15.17;;;10.90;;
18580;SDS011;9420;50.876;7.012;2023-04-29T01:21:02;20.63;;;11.23;;
18580;SDS011;9420;50.876;7.012;2023-04-29T01:23:31;22.03;;;12.13;;
18580;SDS011;9420;50.876;7.012;2023-04-29T01:25:58;19.73;;;13.17;;
18580;SDS011;9420;50.876;7.012;2023-04-29T01:28:29;20.80;;;12.87;;
18580;SDS011;9420;50.876;7.012;2023-04-29T01:31:14;18.23;;;11.97;;
18580;SDS011;9420;50.876;7.012;2023-04-29T01:33:47;23.40;;;13.60;;
18580;SDS011;9420;50.876;7.012;2023-04-29T01:36:32;23.70;;;13.60;;
18580;SDS011;9420;50.876;7.012;2023-04-29T01:39:13;24.97;;;15.53;;
18580;SDS011;9420;50.876;7.012;2023-04-29T01:41:52;19.80;;;14.23;;
18580;SDS011;9420;50.876;7.012;2023-04-29T01:44:28;21.90;;;14.67;;
18580;SDS011;9420;50.876;7.012;2023-04-29T01:46:59;21.43;;;14.23;;
18580;SDS011;9420;50.876;7.012;2023-04-29T01:49:27;20.53;;;13.20;;
18580;SDS011;9420;50.876;7.012;2023-04-29T01:51:55;22.97;;;13.47;;
18580;SDS011;9420;50.876;7.012;2023-04-29T01:54:24;23.50;;;14.77;;
18580;SDS011;9420;50.876;7.012;2023-04-29T01:56:51;25.93;;;16.03;;
18580;SDS011;9420;50.876;7.012;2023-04-29T01:59:19;25.20;;;15.30;;
18580;SDS011;9420;50.876;7.012;2023-04-29T02:01:46;28.97;;;16.27;;
18580;SDS011;9420;50.876;7.012;2023-04-29T02:04:13;23.30;;;15.67;;
18580;SDS011;9420;50.876;7.012;2023-04-29T02:06:41;24.70;;;17.57;;
18580;SDS011;9420;50.876;7.012;2023-04-29T02:09:08;28.13;;;16.83;;
18580;SDS011;9420;50.876;7.012;2023-04-29T02:11:37;24.23;;;15.93;;
18580;SDS011;9420;50.876;7.012;2023-04-29T02:14:04;29.50;;;17.67;;
18580;SDS011;9420;50.876;7.012;2023-04-29T02:16:31;32.87;;;19.70;;
18580;SDS011;9420;50.876;7.012;2023-04-29T02:18:58;34.87;;;19.13;;
18580;SDS011;9420;50.876;7.012;2023-04-29T02:21:25;35.57;;;21.00;;
18580;SDS011;9420;50.876;7.012;2023-04-29T02:23:52;31.10;;;20.07;;
18580;SDS011;9420;50.876;7.012;2023-04-29T02:26:20;35.67;;;21.63;;
18580;SDS011;9420;50.876;7.012;2023-04-29T02:28:50;38.17;;;20.93;;
18580;SDS011;9420;50.876;7.012;2023-04-29T02:31:21;41.20;;;23.00;;
18580;SDS011;9420;50.876;7.012;2023-04-29T02:33:49;35.40;;;21.33;;
18580;SDS011;9420;50.876;7.012;2023-04-29T02:36:18;41.20;;;24.07;;
18580;SDS011;9420;50.876;7.012;2023-04-29T02:38:45;41.47;;;23.17;;
18580;SDS011;9420;50.876;7.012;2023-04-29T02:41:15;35.30;;;22.77;;
18580;SDS011;9420;50.876;7.012;2023-04-29T02:43:49;39.97;;;23.77;;
18580;SDS011;9420;50.876;7.012;2023-04-29T02:46:20;46.30;;;26.10;;
18580;SDS011;9420;50.876;7.012;2023-04-29T02:48:47;37.27;;;22.73;;
18580;SDS011;9420;50.876;7.012;2023-04-29T02:51:15;40.57;;;24.57;;
18580;SDS011;9420;50.876;7.012;2023-04-29T02:53:44;41.63;;;24.73;;
18580;SDS011;9420;50.876;7.012;2023-04-29T02:56:11;37.83;;;23.77;;
18580;SDS011;9420;50.876;7.012;2023-04-29T02:58:39;41.60;;;25.13;;
18580;SDS011;9420;50.876;7.012;2023-04-29T03:01:09;39.57;;;24.30;;
18580;SDS011;9420;50.876;7.012;2023-04-29T03:03:38;41.23;;;24.07;;
18580;SDS011;9420;50.876;7.012;2023-04-29T03:06:05;48.53;;;26.47;;
18580;SDS011;9420;50.876;7.012;2023-04-29T03:08:32;43.00;;;24.37;;
18580;SDS011;9420;50.876;7.012;2023-04-29T03:10:59;40.73;;;25.73;;
18580;SDS011;9420;50.876;7.012;2023-04-29T03:13:27;44.80;;;28.10;;
18580;SDS011;9420;50.876;7.012;2023-04-29T03:15:54;40.10;;;26.20;;
18580;SDS011;9420;50.876;7.012;2023-04-29T03:18:24;46.17;;;26.33;;
18580;SDS011;9420;50.876;7.012;2023-04-29T03:20:51;44.60;;;26.03;;
18580;SDS011;9420;50.876;7.012;2023-04-29T03:23:19;43.87;;;25.43;;
18580;SDS011;9420;50.876;7.012;2023-04-29T03:25:46;50.60;;;29.03;;
18580;SDS011;9420;50.876;7.012;2023-04-29T03:28:14;56.40;;;30.13;;
18580;SDS011;9420;50.876;7.012;2023-04-29T03:30:41;48.37;;;28.43;;
18580;SDS011;9420;50.876;7.012;2023-04-29T03:33:09;49.73;;;28.63;;
18580;SDS011;9420;50.876;7.012;2023-04-29T03:35:37;60.97;;;31.30;;
18580;SDS011;9420;50.876;7.012;2023-04-29T03:38:04;49.40;;;29.03;;
18580;SDS011;9420;50.876;7.012;2023-04-29T03:40:31;59.80;;;31.30;;
18580;SDS011;9420;50.876;7.012;2023-04-29T03:42:58;61.63;;;34.03;;
18580;SDS011;9420;50.876;7.012;2023-04-29T03:45:25;67.83;;;36.57;;
18580;SDS011;9420;50.876;7.012;2023-04-29T03:47:52;71.00;;;34.57;;
18580;SDS011;9420;50.876;7.012;2023-04-29T03:50:19;66.00;;;36.03;;
18580;SDS011;9420;50.876;7.012;2023-04-29T03:52:49;78.93;;;37.93;;
18580;SDS011;9420;50.876;7.012;2023-04-29T03:55:17;82.73;;;39.73;;
18580;SDS011;9420;50.876;7.012;2023-04-29T03:57:44;74.27;;;41.10;;
18580;SDS011;9420;50.876;7.012;2023-04-29T04:00:11;95.17;;;45.93;;
18580;SDS011;9420;50.876;7.012;2023-04-29T04:02:39;87.63;;;45.03;;
18580;SDS011;9420;50.876;7.012;2023-04-29T04:05:06;91.53;;;45.50;;
18580;SDS011;9420;50.876;7.012;2023-04-29T04:07:34;87.83;;;41.17;;
18580;SDS011;9420;50.876;7.012;2023-04-29T04:10:03;86.50;;;43.47;;
18580;SDS011;9420;50.876;7.012;2023-04-29T04:12:31;84.73;;;40.23;;
18580;SDS011;9420;50.876;7.012;2023-04-29T04:14:58;76.87;;;35.03;;
18580;SDS011;9420;50.876;7.012;2023-04-29T04:17:25;86.07;;;35.97;;
18580;SDS011;9420;50.876;7.012;2023-04-29T04:19:52;70.20;;;34.90;;
18580;SDS011;9420;50.876;7.012;2023-04-29T04:22:20;74.17;;;34.73;;
18580;SDS011;9420;50.876;7.012;2023-04-29T04:24:48;76.60;;;34.83;;
18580;SDS011;9420;50.876;7.012;2023-04-29T04:27:17;86.30;;;33.73;;
18580;SDS011;9420;50.876;7.012;2023-04-29T04:29:45;91.90;;;35.87;;
18580;SDS011;9420;50.876;7.012;2023-04-29T04:32:12;84.13;;;36.23;;
18580;SDS011;9420;50.876;7.012;2023-04-29T04:34:42;83.57;;;35.23;;
18580;SDS011;9420;50.876;7.012;2023-04-29T04:37:16;91.93;;;36.03;;
18580;SDS011;9420;50.876;7.012;2023-04-29T04:39:46;78.67;;;33.53;;
18580;SDS011;9420;50.876;7.012;2023-04-29T04:42:20;84.40;;;35.33;;
18580;SDS011;9420;50.876;7.012;2023-04-29T04:44:49;83.50;;;37.43;;
18580;SDS011;9420;50.876;7.012;2023-04-29T04:47:23;86.80;;;36.90;;
18580;SDS011;9420;50.876;7.012;2023-04-29T04:49:54;80.37;;;34.97;;
18580;SDS011;9420;50.876;7.012;2023-04-29T04:52:36;83.27;;;34.03;;
18580;SDS011;9420;50.876;7.012;2023-04-29T04:55:05;86.93;;;36.50;;
18580;SDS011;9420;50.876;7.012;2023-04-29T04:57:38;85.13;;;37.83;;
18580;SDS011;9420;50.876;7.012;2023-04-29T05:00:05;86.53;;;34.73;;
18580;SDS011;9420;50.876;7.012;2023-04-29T05:02:34;75.50;;;33.30;;
18580;SDS011;9420;50.876;7.012;2023-04-29T05:05:01;77.60;;;34.10;;
18580;SDS011;9420;50.876;7.012;2023-04-29T05:07:28;70.57;;;33.03;;
18580;SDS011;9420;50.876;7.012;2023-04-29T05:09:55;77.20;;;35.67;;
18580;SDS011;9420;50.876;7.012;2023-04-29T05:12:23;70.10;;;33.90;;
18580;SDS011;9420;50.876;7.012;2023-04-29T05:14:56;74.83;;;33.80;;
18580;SDS011;9420;50.876;7.012;2023-04-29T05:17:23;65.50;;;32.43;;
18580;SDS011;9420;50.876;7.012;2023-04-29T05:19:50;69.10;;;31.97;;
18580;SDS011;9420;50.876;7.012;2023-04-29T05:22:22;62.13;;;29.87;;
18580;SDS011;9420;50.876;7.012;2023-04-29T05:24:53;61.80;;;27.50;;
18580;SDS011;9420;50.876;7.012;2023-04-29T05:27:26;57.57;;;28.70;;
18580;SDS011;9420;50.876;7.012;2023-04-29T05:29:53;60.73;;;26.63;;
18580;SDS011;9420;50.876;7.012;2023-04-29T05:32:22;54.87;;;26.67;;
18580;SDS011;9420;50.876;7.012;2023-04-29T05:34:50;48.97;;;26.83;;
18580;SDS011;9420;50.876;7.012;2023-04-29T05:37:17;51.03;;;24.97;;
18580;SDS011;9420;50.876;7.012;2023-04-29T05:39:44;51.93;;;23.87;;
18580;SDS011;9420;50.876;7.012;2023-04-29T05:42:11;46.80;;;24.50;;
18580;SDS011;9420;50.876;7.012;2023-04-29T05:44:38;46.63;;;23.07;;
18580;SDS011;9420;50.876;7.012;2023-04-29T05:47:08;44.17;;;22.57;;
18580;SDS011;9420;50.876;7.012;2023-04-29T05:49:35;35.13;;;19.73;;
18580;SDS011;9420;50.876;7.012;2023-04-29T05:52:15;41.40;;;20.13;;
18580;SDS011;9420;50.876;7.012;2023-04-29T05:54:42;35.63;;;19.73;;
18580;SDS011;9420;50.876;7.012;2023-04-29T05:57:10;35.13;;;18.60;;
18580;SDS011;9420;50.876;7.012;2023-04-29T05:59:38;37.30;;;20.87;;
18580;SDS011;9420;50.876;7.012;2023-04-29T06:02:08;46.17;;;22.90;;
18580;SDS011;9420;50.876;7.012;2023-04-29T06:04:36;39.73;;;22.30;;
18580;SDS011;9420;50.876;7.012;2023-04-29T06:07:05;40.90;;;21.23;;
18580;SDS011;9420;50.876;7.012;2023-04-29T06:09:37;38.37;;;21.00;;
18580;SDS011;9420;50.876;7.012;2023-04-29T06:12:05;37.93;;;21.57;;
18580;SDS011;9420;50.876;7.012;2023-04-29T06:14:32;37.60;;;20.67;;
18580;SDS011;9420;50.876;7.012;2023-04-29T06:16:59;35.37;;;19.00;;
18580;SDS011;9420;50.876;7.012;2023-04-29T06:19:28;37.40;;;20.60;;
18580;SDS011;9420;50.876;7.012;2023-04-29T06:21:58;35.23;;;18.40;;
18580;SDS011;9420;50.876;7.012;2023-04-29T06:24:25;29.73;;;16.87;;
18580;SDS011;9420;50.876;7.012;2023-04-29T06:26:52;33.17;;;18.20;;
18580;SDS011;9420;50.876;7.012;2023-04-29T06:29:19;32.60;;;18.23;;
18580;SDS011;9420;50.876;7.012;2023-04-29T06:31:46;35.27;;;19.43;;
18580;SDS011;9420;50.876;7.012;2023-04-29T06:34:13;30.43;;;16.30;;
18580;SDS011;9420;50.876;7.012;2023-04-29T06:36:42;29.30;;;17.40;;
18580;SDS011;9420;50.876;7.012;2023-04-29T06:39:09;29.67;;;16.43;;
18580;SDS011;9420;50.876;7.012;2023-04-29T06:41:36;30.87;;;15.60;;
18580;SDS011;9420;50.876;7.012;2023-04-29T06:44:04;24.50;;;15.60;;
18580;SDS011;9420;50.876;7.012;2023-04-29T06:46:32;24.70;;;15.50;;
18580;SDS011;9420;50.876;7.012;2023-04-29T06:48:59;28.33;;;17.00;;
18580;SDS011;9420;50.876;7.012;2023-04-29T06:51:26;26.27;;;15.53;;
18580;SDS011;9420;50.876;7.012;2023-04-29T06:53:55;27.27;;;16.43;;
18580;SDS011;9420;50.876;7.012;2023-04-29T06:56:22;26.30;;;15.77;;
18580;SDS011;9420;50.876;7.012;2023-04-29T06:58:49;24.23;;;16.20;;
18580;SDS011;9420;50.876;7.012;2023-04-29T07:01:16;30.20;;;17.27;;
18580;SDS011;9420;50.876;7.012;2023-04-29T07:03:44;29.30;;;17.07;;
18580;SDS011;9420;50.876;7.012;2023-04-29T07:06:11;28.03;;;16.40;;
18580;SDS011;9420;50.876;7.012;2023-04-29T07:08:39;27.23;;;16.57;;
18580;SDS011;9420;50.876;7.012;2023-04-29T07:11:08;26.67;;;16.50;;
18580;SDS011;9420;50.876;7.012;2023-04-29T07:13:35;31.93;;;17.10;;
18580;SDS011;9420;50.876;7.012;2023-04-29T07:16:02;30.50;;;17.87;;
18580;SDS011;9420;50.876;7.012;2023-04-29T07:18:29;25.57;;;15.57;;
18580;SDS011;9420;50.876;7.012;2023-04-29T07:20:59;26.57;;;16.63;;
18580;SDS011;9420;50.876;7.012;2023-04-29T07:23:26;26.83;;;15.60;;
18580;SDS011;9420;50.876;7.012;2023-04-29T07:25:54;26.63;;;15.63;;
18580;SDS011;9420;50.876;7.012;2023-04-29T07:28:23;23.03;;;15.30;;
18580;SDS011;9420;50.876;7.012;2023-04-29T07:30:50;26.00;;;15.17;;
18580;SDS011;9420;50.876;7.012;2023-04-29T07:33:17;25.47;;;17.33;;
18580;SDS011;9420;50.876;7.012;2023-04-29T07:35:44;26.23;;;15.70;;
18580;SDS011;9420;50.876;7.012;2023-04-29T07:38:12;28.87;;;16.87;;
18580;SDS011;9420;50.876;7.012;2023-04-29T07:40:38;27.37;;;17.27;;
18580;SDS011;9420;50.876;7.012;2023-04-29T07:43:07;26.50;;;17.00;;
18580;SDS011;9420;50.876;7.012;2023-04-29T07:45:36;23.83;;;15.90;;
18580;SDS011;9420;50.876;7.012;2023-04-29T07:48:04;26.50;;;16.00;;
18580;SDS011;9420;50.876;7.012;2023-04-29T07:50:32;30.00;;;16.90;;
18580;SDS011;9420;50.876;7.012;2023-04-29T07:53:00;25.23;;;17.00;;
18580;SDS011;9420;50.876;7.012;2023-04-29T07:55:27;24.07;;;16.60;;
18580;SDS011;9420;50.876;7.012;2023-04-29T07:57:55;28.07;;;15.97;;
18580;SDS011;9420;50.876;7.012;2023-04-29T08:00:22;24.73;;;15.80;;
18580;SDS011;9420;50.876;7.012;2023-04-29T08:02:51;26.97;;;16.23;;
18580;SDS011;9420;50.876;7.012;2023-04-29T08:05:19;23.40;;;15.47;;
18580;SDS011;9420;50.876;7.012;2023-04-29T08:07:47;24.83;;;15.93;;
18580;SDS011;9420;50.876;7.012;2023-04-29T08:10:14;25.10;;;16.93;;
18580;SDS011;9420;50.876;7.012;2023-04-29T08:12:44;26.43;;;15.43;;
18580;SDS011;9420;50.876;7.012;2023-04-29T08:15:11;27.70;;;17.20;;
18580;SDS011;9420;50.876;7.012;2023-04-29T08:17:38;27.67;;;16.03;;
18580;SDS011;9420;50.876;7.012;2023-04-29T08:20:07;25.20;;;16.23;;
18580;SDS011;9420;50.876;7.012;2023-04-29T08:22:35;24.70;;;15.90;;
18580;SDS011;9420;50.876;7.012;2023-04-29T08:25:03;24.03;;;16.23;;
18580;SDS011;9420;50.876;7.012;2023-04-29T08:27:30;23.73;;;15.70;;
18580;SDS011;9420;50.876;7.012;2023-04-29T08:29:58;26.47;;;16.63;;
18580;SDS011;9420;50.876;7.012;2023-04-29T08:32:25;24.90;;;15.23;;
18580;SDS011;9420;50.876;7.012;2023-04-29T08:34:52;21.53;;;14.20;;
18580;SDS011;9420;50.876;7.012;2023-04-29T08:37:20;22.63;;;15.73;;
18580;SDS011;9420;50.876;7.012;2023-04-29T08:39:47;23.73;;;16.13;;
18580;SDS011;9420;50.876;7.012;2023-04-29T08:42:14;25.80;;;17.00;;
18580;SDS011;9420;50.876;7.012;2023-04-29T08:44:48;26.00;;;15.93;;
18580;SDS011;9420;50.876;7.012;2023-04-29T08:47:18;23.03;;;15.97;;
18580;SDS011;9420;50.876;7.012;2023-04-29T08:49:47;24.47;;;15.10;;
18580;SDS011;9420;50.876;7.012;2023-04-29T08:52:14;22.47;;;15.40;;
18580;SDS011;9420;50.876;7.012;2023-04-29T08:54:44;26.53;;;15.30;;
18580;SDS011;9420;50.876;7.012;2023-04-29T08:57:11;26.50;;;16.57;;
18580;SDS011;9420;50.876;7.012;2023-04-29T08:59:38;23.23;;;15.20;;
18580;SDS011;9420;50.876;7.012;2023-04-29T09:02:05;23.10;;;15.47;;
18580;SDS011;9420;50.876;7.012;2023-04-29T09:04:45;25.90;;;15.30;;
18580;SDS011;9420;50.876;7.012;2023-04-29T09:07:20;27.27;;;16.13;;
18580;SDS011;9420;50.876;7.012;2023-04-29T09:09:50;32.30;;;18.53;;
18580;SDS011;9420;50.876;7.012;2023-04-29T09:12:19;30.80;;;18.67;;
18580;SDS011;9420;50.876;7.012;2023-04-29T09:14:46;24.03;;;16.60;;
18580;SDS011;9420;50.876;7.012;2023-04-29T09:17:13;29.77;;;16.20;;
18580;SDS011;9420;50.876;7.012;2023-04-29T09:19:40;29.60;;;19.00;;
18580;SDS011;9420;50.876;7.012;2023-04-29T09:22:09;28.10;;;18.63;;
18580;SDS011;9420;50.876;7.012;2023-04-29T09:24:36;32.67;;;18.33;;
18580;SDS011;9420;50.876;7.012;2023-04-29T09:27:05;28.30;;;17.57;;
18580;SDS011;9420;50.876;7.012;2023-04-29T09:29:33;27.20;;;17.67;;
18580;SDS011;9420;50.876;7.012;2023-04-29T09:32:17;23.43;;;14.87;;
18580;SDS011;9420;50.876;7.012;2023-04-29T09:34:46;21.70;;;14.73;;
18580;SDS011;9420;50.876;7.012;2023-04-29T09:37:22;25.67;;;14.13;;
18580;SDS011;9420;50.876;7.012;2023-04-29T09:39:52;23.80;;;16.23;;
18580;SDS011;9420;50.876;7.012;2023-04-29T09:42:21;24.43;;;15.23;;
18580;SDS011;9420;50.876;7.012;2023-04-29T09:44:48;23.33;;;16.17;;
18580;SDS011;9420;50.876;7.012;2023-04-29T09:47:16;21.63;;;14.13;;
18580;SDS011;9420;50.876;7.012;2023-04-29T09:49:56;22.23;;;14.90;;
18580;SDS011;9420;50.876;7.012;2023-04-29T09:52:40;19.23;;;13.27;;
18580;SDS011;9420;50.876;7.012;2023-04-29T09:55:07;23.90;;;15.70;;
18580;SDS011;9420;50.876;7.012;2023-04-29T09:57:40;27.10;;;18.23;;
18580;SDS011;9420;50.876;7.012;2023-04-29T10:00:10;24.40;;;16.17;;
18580;SDS011;9420;50.876;7.012;2023-04-29T10:02:39;25.63;;;17.70;;
18580;SDS011;9420;50.876;7.012;2023-04-29T10:05:08;25.63;;;15.23;;
18580;SDS011;9420;50.876;7.012;2023-04-29T10:07:38;20.67;;;15.03;;
18580;SDS011;9420;50.876;7.012;2023-04-29T10:10:07;21.87;;;14.43;;
18580;SDS011;9420;50.876;7.012;2023-04-29T10:12:38;26.17;;;16.07;;
18580;SDS011;9420;50.876;7.012;2023-04-29T10:15:12;28.67;;;16.17;;
18580;SDS011;9420;50.876;7.012;2023-04-29T10:17:57;30.20;;;18.67;;
18580;SDS011;9420;50.876;7.012;2023-04-29T10:20:32;31.73;;;19.93;;
18580;SDS011;9420;50.876;7.012;2023-04-29T10:23:02;25.90;;;17.80;;
18580;SDS011;9420;50.876;7.012;2023-04-29T10:25:30;31.17;;;19.50;;
18580;SDS011;9420;50.876;7.012;2023-04-29T10:28:04;26.90;;;18.53;;
18580;SDS011;9420;50.876;7.012;2023-04-29T10:30:43;29.13;;;19.53;;
18580;SDS011;9420;50.876;7.012;2023-04-29T10:33:16;39.53;;;23.47;;
18580;SDS011;9420;50.876;7.012;2023-04-29T10:35:44;38.77;;;22.97;;
18580;SDS011;9420;50.876;7.012;2023-04-29T10:38:14;39.87;;;24.60;;
18580;SDS011;9420;50.876;7.012;2023-04-29T10:40:53;36.27;;;23.83;;
18580;SDS011;9420;50.876;7.012;2023-04-29T10:43:29;39.87;;;23.67;;
18580;SDS011;9420;50.876;7.012;2023-04-29T10:48:51;38.93;;;23.10;;
18580;SDS011;9420;50.876;7.012;2023-04-29T10:51:28;37.77;;;23.43;;
18580;SDS011;9420;50.876;7.012;2023-04-29T10:53:58;36.87;;;23.23;;
18580;SDS011;9420;50.876;7.012;2023-04-29T10:56:37;30.77;;;22.03;;
18580;SDS011;9420;50.876;7.012;2023-04-29T10:59:11;37.43;;;22.03;;
18580;SDS011;9420;50.876;7.012;2023-04-29T11:01:44;28.13;;;19.47;;
18580;SDS011;9420;50.876;7.012;2023-04-29T11:04:14;30.97;;;19.50;;
18580;SDS011;9420;50.876;7.012;2023-04-29T11:06:44;30.43;;;21.30;;
18580;SDS011;9420;50.876;7.012;2023-04-29T11:09:14;27.97;;;20.43;;
18580;SDS011;9420;50.876;7.012;2023-04-29T11:11:56;26.63;;;18.10;;
18580;SDS011;9420;50.876;7.012;2023-04-29T11:14:30;23.97;;;16.73;;
18580;SDS011;9420;50.876;7.012;2023-04-29T11:17:02;26.43;;;17.50;;
18580;SDS011;9420;50.876;7.012;2023-04-29T11:19:33;35.53;;;19.03;;
18580;SDS011;9420;50.876;7.012;2023-04-29T11:22:03;43.20;;;23.27;;
18580;SDS011;9420;50.876;7.012;2023-04-29T11:24:46;44.50;;;28.70;;
18580;SDS011;9420;50.876;7.012;2023-04-29T11:27:20;47.83;;;31.07;;
18580;SDS011;9420;50.876;7.012;2023-04-29T11:29:55;46.30;;;31.63;;
18580;SDS011;9420;50.876;7.012;2023-04-29T11:32:23;54.70;;;35.63;;
18580;SDS011;9420;50.876;7.012;2023-04-29T11:34:51;66.33;;;39.63;;
18580;SDS011;9420;50.876;7.012;2023-04-29T11:37:22;76.40;;;42.73;;
18580;SDS011;9420;50.876;7.012;2023-04-29T11:39:52;69.13;;;42.73;;
18580;SDS011;9420;50.876;7.012;2023-04-29T11:42:25;73.83;;;44.80;;
18580;SDS011;9420;50.876;7.012;2023-04-29T11:44:58;76.40;;;44.63;;
18580;SDS011;9420;50.876;7.012;2023-04-29T11:47:26;80.77;;;44.97;;
18580;SDS011;9420;50.876;7.012;2023-04-29T11:50:00;74.73;;;44.27;;
18580;SDS011;9420;50.876;7.012;2023-04-29T11:52:29;82.93;;;45.67;;
18580;SDS011;9420;50.876;7.012;2023-04-29T11:54:57;84.10;;;47.67;;
18580;SDS011;9420;50.876;7.012;2023-04-29T11:57:24;79.20;;;47.33;;
18580;SDS011;9420;50.876;7.012;2023-04-29T11:59:51;76.97;;;48.83;;
18580;SDS011;9420;50.876;7.012;2023-04-29T12:02:21;83.87;;;48.53;;
18580;SDS011;9420;50.876;7.012;2023-04-29T12:04:49;78.47;;;48.23;;
18580;SDS011;9420;50.876;7.012;2023-04-29T12:07:16;79.43;;;48.33;;
18580;SDS011;9420;50.876;7.012;2023-04-29T12:09:43;82.30;;;48.87;;
18580;SDS011;9420;50.876;7.012;2023-04-29T12:12:12;81.67;;;51.30;;
18580;SDS011;9420;50.876;7.012;2023-04-29T12:14:40;88.23;;;53.50;;
18580;SDS011;9420;50.876;7.012;2023-04-29T12:17:08;78.83;;;48.67;;
18580;SDS011;9420;50.876;7.012;2023-04-29T12:19:37;84.40;;;49.53;;
18580;SDS011;9420;50.876;7.012;2023-04-29T12:22:05;79.03;;;49.80;;
18580;SDS011;9420;50.876;7.012;2023-04-29T12:24:33;79.93;;;48.27;;
18580;SDS011;9420;50.876;7.012;2023-04-29T12:27:01;74.33;;;47.00;;
18580;SDS011;9420;50.876;7.012;2023-04-29T12:29:30;87.13;;;51.33;;
18580;SDS011;9420;50.876;7.012;2023-04-29T12:31:58;77.43;;;49.03;;
18580;SDS011;9420;50.876;7.012;2023-04-29T12:34:25;77.13;;;46.03;;
18580;SDS011;9420;50.876;7.012;2023-04-29T12:36:55;82.63;;;48.27;;
18580;SDS011;9420;50.876;7.012;2023-04-29T12:39:25;75.77;;;47.73;;
18580;SDS011;9420;50.876;7.012;2023-04-29T12:41:53;82.70;;;49.17;;
18580;SDS011;9420;50.876;7.012;2023-04-29T12:44:23;73.70;;;44.77;;
18580;SDS011;9420;50.876;7.012;2023-04-29T12:46:51;70.00;;;42.57;;
18580;SDS011;9420;50.876;7.012;2023-04-29T12:49:18;69.97;;;43.47;;
18580;SDS011;9420;50.876;7.012;2023-04-29T12:51:45;66.67;;;43.90;;
18580;SDS011;9420;50.876;7.012;2023-04-29T12:54:14;79.30;;;45.70;;
18580;SDS011;9420;50.876;7.012;2023-04-29T12:56:41;81.00;;;45.60;;
18580;SDS011;9420;50.876;7.012;2023-04-29T12:59:08;68.23;;;42.90;;
18580;SDS011;9420;50.876;7.012;2023-04-29T13:01:36;64.93;;;38.60;;
18580;SDS011;9420;50.876;7.012;2023-04-29T13:04:04;55.57;;;37.10;;
18580;SDS011;9420;50.876;7.012;2023-04-29T13:06:33;56.97;;;33.97;;
18580;SDS011;9420;50.876;7.012;2023-04-29T13:09:03;50.00;;;32.53;;
18580;SDS011;9420;50.876;7.012;2023-04-29T13:11:33;51.27;;;33.17;;
18580;SDS011;9420;50.876;7.012;2023-04-29T13:14:01;54.30;;;32.87;;
18580;SDS011;9420;50.876;7.012;2023-04-29T13:16:28;43.37;;;29.00;;
18580;SDS011;9420;50.876;7.012;2023-04-29T13:18:55;47.27;;;29.50;;
18580;SDS011;9420;50.876;7.012;2023-04-29T13:21:22;48.33;;;28.70;;
18580;SDS011;9420;50.876;7.012;2023-04-29T13:23:49;41.80;;;27.37;;
18580;SDS011;9420;50.876;7.012;2023-04-29T13:26:16;46.30;;;26.60;;
18580;SDS011;9420;50.876;7.012;2023-04-29T13:28:45;38.70;;;25.43;;
18580;SDS011;9420;50.876;7.012;2023-04-29T13:31:12;41.00;;;25.70;;
18580;SDS011;9420;50.876;7.012;2023-04-29T13:33:39;39.93;;;25.07;;
18580;SDS011;9420;50.876;7.012;2023-04-29T13:36:07;36.00;;;22.80;;
18580;SDS011;9420;50.876;7.012;2023-04-29T13:38:34;40.83;;;26.10;;
18580;SDS011;9420;50.876;7.012;2023-04-29T13:41:01;34.73;;;24.03;;
18580;SDS011;9420;50.876;7.012;2023-04-29T13:43:28;39.30;;;25.83;;
18580;SDS011;9420;50.876;7.012;2023-04-29T13:45:57;34.07;;;23.37;;
18580;SDS011;9420;50.876;7.012;2023-04-29T13:48:24;38.60;;;23.37;;
18580;SDS011;9420;50.876;7.012;2023-04-29T13:50:51;37.00;;;23.87;;
18580;SDS011;9420;50.876;7.012;2023-04-29T13:53:19;37.50;;;24.30;;
18580;SDS011;9420;50.876;7.012;2023-04-29T13:55:46;35.17;;;21.37;;
18580;SDS011;9420;50.876;7.012;2023-04-29T13:58:13;37.43;;;22.63;;
18580;SDS011;9420;50.876;7.012;2023-04-29T14:00:40;34.90;;;22.90;;
18580;SDS011;9420;50.876;7.012;2023-04-29T14:03:08;35.90;;;21.03;;
18580;SDS011;9420;50.876;7.012;2023-04-29T14:05:36;38.87;;;22.83;;
18580;SDS011;9420;50.876;7.012;2023-04-29T14:08:03;29.90;;;21.73;;
18580;SDS011;9420;50.876;7.012;2023-04-29T14:10:30;32.67;;;21.27;;
18580;SDS011;9420;50.876;7.012;2023-04-29T14:12:58;29.53;;;20.83;;
18580;SDS011;9420;50.876;7.012;2023-04-29T14:15:25;34.20;;;21.57;;
18580;SDS011;9420;50.876;7.012;2023-04-29T14:17:52;33.43;;;22.40;;
18580;SDS011;9420;50.876;7.012;2023-04-29T14:20:22;36.07;;;22.30;;
18580;SDS011;9420;50.876;7.012;2023-04-29T14:22:49;38.93;;;22.03;;
18580;SDS011;9420;50.876;7.012;2023-04-29T14:25:16;38.20;;;20.57;;
18580;SDS011;9420;50.876;7.012;2023-04-29T14:27:43;36.47;;;23.33;;
18580;SDS011;9420;50.876;7.012;2023-04-29T14:30:10;36.23;;;22.63;;
18580;SDS011;9420;50.876;7.012;2023-04-29T14:32:38;31.50;;;21.90;;
18580;SDS011;9420;50.876;7.012;2023-04-29T14:35:05;31.57;;;22.47;;
18580;SDS011;9420;50.876;7.012;2023-04-29T14:37:35;31.87;;;21.23;;
18580;SDS011;9420;50.876;7.012;2023-04-29T14:40:02;34.63;;;22.60;;
18580;SDS011;9420;50.876;7.012;2023-04-29T14:42:31;30.97;;;21.50;;
18580;SDS011;9420;50.876;7.012;2023-04-29T14:44:58;30.83;;;21.07;;
18580;SDS011;9420;50.876;7.012;2023-04-29T14:47:25;34.93;;;21.57;;
18580;SDS011;9420;50.876;7.012;2023-04-29T14:49:52;31.47;;;21.00;;